Maersk Idaho — WKPM — position and weather

sailwx.info

Track history (hours):
 
Tides and Currents Weather Stations Pressure Air Temp Water Temp Dewpoint Dewpoint Depression Visibility Wind Speed Wind Dir Waves Ship Positions

Maersk Idaho

Owner: MAERSK LINE, LIMITED, NORFOLK, VA. More information available from US FCC via Universal Licensing System and Coast Guard Vessel Documentation Center.

Last reported at 2017-Nov-18 12:00 UTC. Time now 2017-Nov-21 15:42 UTC.
Position N 49°54' W 011°30'.

Length 292 m; draft 11.8 m.

Type: Cargo ship. MMSI: 368660000.

Wind from 230 at 19 knots

Barometer 1032.0 mb
Air temperature 14.0 ° C
Visibility: greater than 27.0 NM
Dewpoint 10.5 ° C
Water temperature 15.6 ° C

Date/timePositionNaut miles runAvg speedWind from/ knotsBaromVisibWave heightAir tempDewpointWater temp
2017-Nov-18 12:00N 49°54' W 011°30'23618.6 230 / 191032.027.0 14.010.515.6
2017-Nov-17 23:16N 49°47' W 005°24'520.5
2017-Nov-17 23:00N 49°47' W 005°16'1020.8
2017-Nov-17 22:30N 49°49' W 004°60'1720.6
2017-Nov-17 21:40N 49°54' W 004°34'420.4
2017-Nov-17 21:27N 49°55' W 004°27'920.2
2017-Nov-17 21:01N 49°57' W 004°14'1319.2
2017-Nov-17 20:21N 50°03' W 003°56'719.2
2017-Nov-17 20:00N 50°05' W 003°46'918.4
2017-Nov-17 19:30N 50°07' W 003°32'918.4
2017-Nov-17 19:00N 50°16' W 003°28'816.9
2017-Nov-17 18:31N 50°24' W 003°25'510.8
2017-Nov-17 18:00N 50°25' W 003°17'918.4
2017-Nov-17 17:30N 50°26' W 003°03'918.8
2017-Nov-17 17:00N 50°26' W 002°48'1019.0
2017-Nov-17 16:30N 50°26' W 002°33'1019.3
2017-Nov-17 16:00N 50°26' W 002°18'1420.2
2017-Nov-17 15:18N 50°27' W 001°56'620.9
2017-Nov-17 15:00N 50°27' W 001°46'1621.6
2017-Nov-17 14:17N 50°28' W 001°22'1322.2
2017-Nov-17 13:41N 50°29' W 001°01'421.9
2017-Nov-17 13:30N 50°30' W 000°55'2221.5
2017-Nov-17 12:29N 50°29' W 000°20'1020.9
2017-Nov-17 12:00N 50°30' W 000°04'1020.6
2017-Nov-17 11:30N 50°33' E 000°11'1020.2
2017-Nov-17 11:00N 50°36' E 000°27'1019.5
2017-Nov-17 10:30N 50°40' E 000°41'1019.3
2017-Nov-17 10:00N 50°46' E 000°53'1019.0
2017-Nov-17 09:30N 50°52' E 001°05'1019.2
2017-Nov-17 09:00N 50°58' E 001°16'1020.5
2017-Nov-17 08:30N 51°05' E 001°29'1122.0
2017-Nov-17 08:00N 51°12' E 001°42'1122.4
2017-Nov-17 07:30N 51°21' E 001°51'1121.8
2017-Nov-17 07:00N 51°30' E 002°02'1121.4
2017-Nov-17 06:30N 51°38' E 002°14'12519.1
2017-Nov-16 23:58N 53°13' E 004°26'12817.2
2017-Nov-16 16:32N 53°53' E 007°51'113.6
2017-Nov-16 16:29N 53°52' E 007°52'612.4
2017-Nov-16 16:00N 53°51' E 008°02'714.4
2017-Nov-16 15:30N 53°46' E 008°11'815.4
2017-Nov-16 15:01N 53°41' E 008°21'815.1
2017-Nov-16 14:30N 53°36' E 008°30'2 3.2
2017-Nov-16 14:00N 53°35' E 008°32'0 0.0
2017-Nov-16 13:30N 53°35' E 008°32'0 0.0
2017-Nov-16 12:59N 53°35' E 008°32'0 0.0
2017-Nov-16 12:26N 53°35' E 008°32'0 0.0
2017-Nov-16 11:59N 53°35' E 008°32'0 0.0
2017-Nov-16 11:29N 53°35' E 008°32'0 0.0
2017-Nov-16 10:59N 53°35' E 008°32'0 0.0
2017-Nov-16 10:29N 53°35' E 008°32'0 0.0
2017-Nov-16 09:59N 53°35' E 008°32'0 0.0
2017-Nov-16 09:29N 53°35' E 008°32'0 0.0
2017-Nov-16 08:59N 53°35' E 008°32'0 0.0
2017-Nov-16 08:29N 53°35' E 008°32'0 0.0
2017-Nov-16 07:59N 53°35' E 008°32'0 0.0
2017-Nov-16 07:29N 53°35' E 008°32'0 0.0
2017-Nov-16 06:59N 53°35' E 008°32'0 0.0
2017-Nov-16 06:29N 53°35' E 008°32'0 0.0
2017-Nov-16 05:59N 53°35' E 008°32'0 0.0
2017-Nov-16 05:29N 53°35' E 008°32'0 0.0
2017-Nov-16 04:59N 53°35' E 008°32'0 0.0
2017-Nov-16 04:29N 53°35' E 008°32'0 0.0
2017-Nov-16 03:59N 53°35' E 008°32'0 0.0
2017-Nov-16 03:29N 53°35' E 008°32'0 0.0
2017-Nov-16 02:59N 53°35' E 008°32'0 0.0
2017-Nov-16 02:29N 53°35' E 008°32'0 0.0
2017-Nov-16 01:59N 53°35' E 008°32'0 0.0
2017-Nov-16 01:29N 53°35' E 008°32'0 0.0
2017-Nov-16 00:59N 53°35' E 008°32'0 0.0
2017-Nov-16 00:29N 53°35' E 008°32'0 0.0
2017-Nov-15 23:59N 53°35' E 008°32'0 0.0
2017-Nov-15 23:29N 53°35' E 008°32'0 0.0
2017-Nov-15 22:59N 53°35' E 008°32'0 0.0
2017-Nov-15 22:29N 53°35' E 008°32'0 0.0
2017-Nov-15 21:59N 53°35' E 008°32'0 0.0
2017-Nov-15 21:29N 53°35' E 008°32'0 0.0
2017-Nov-15 20:59N 53°35' E 008°32'0 0.0
2017-Nov-15 20:29N 53°35' E 008°32'0 0.0
2017-Nov-15 19:59N 53°35' E 008°32'0 0.0
2017-Nov-15 19:29N 53°35' E 008°32'0 0.0
2017-Nov-15 18:59N 53°35' E 008°32'0 0.0
2017-Nov-15 18:30N 53°35' E 008°32'1 1.0
2017-Nov-15 18:00N 53°35' E 008°31'4 8.8
2017-Nov-15 17:30N 53°38' E 008°26'918.8
2017-Nov-15 17:00N 53°44' E 008°14'1019.7
2017-Nov-15 16:30N 53°51' E 008°01'816.5
2017-Nov-15 16:00N 53°53' E 007°48'611.6
2017-Nov-15 15:30N 53°54' E 007°38'1018.5
2017-Nov-15 14:59N 53°53' E 007°22'11318.3
2017-Nov-15 08:48N 53°06' E 004°28'518.9
2017-Nov-15 08:30N 53°02' E 004°24'1019.0
2017-Nov-15 08:00N 52°53' E 004°17'918.9
2017-Nov-15 07:30N 52°45' E 004°08'918.9
2017-Nov-15 07:00N 52°37' E 003°60'918.7
2017-Nov-15 06:30N 52°29' E 003°54'918.8
2017-Nov-15 06:00N 52°19' E 003°52'918.9
2017-Nov-15 05:30N 52°10' E 003°54'815.1
2017-Nov-15 05:00N 52°02' E 003°54'715.0
2017-Nov-15 04:31N 51°59' E 004°05'2 4.4
2017-Nov-15 04:00N 51°58' E 004°01'1 2.4
2017-Nov-15 03:30N 51°58' E 004°00'0 0.6
2017-Nov-15 03:00N 51°57' E 004°00'0 0.0
2017-Nov-15 02:30N 51°57' E 004°00'0 0.0
2017-Nov-15 02:00N 51°57' E 004°00'0 0.0
2017-Nov-15 01:30N 51°57' E 004°00'0 0.0
2017-Nov-15 00:58N 51°57' E 004°00'0 0.0
2017-Nov-15 00:28N 51°57' E 004°00'0 0.0
2017-Nov-14 23:58N 51°57' E 004°00'0 0.0
2017-Nov-14 23:28N 51°57' E 004°00'0 0.0
2017-Nov-14 22:58N 51°57' E 004°00'0 0.0
2017-Nov-14 22:28N 51°57' E 004°00'0 0.0
2017-Nov-14 21:58N 51°57' E 004°00'0 0.0
2017-Nov-14 21:28N 51°57' E 004°00'0 0.0
2017-Nov-14 20:58N 51°57' E 004°00'0 0.0
2017-Nov-14 20:28N 51°57' E 004°00'0 0.0
2017-Nov-14 19:55N 51°57' E 004°00'0 0.0
2017-Nov-14 19:25N 51°57' E 004°00'0 0.0
2017-Nov-14 18:58N 51°57' E 004°00'0 0.0
2017-Nov-14 18:28N 51°57' E 004°00'0 0.0
2017-Nov-14 17:58N 51°57' E 004°00'0 0.0
2017-Nov-14 17:28N 51°57' E 004°00'0 0.0
2017-Nov-14 16:58N 51°57' E 004°00'0 0.0
2017-Nov-14 16:28N 51°57' E 004°00'0 0.0
2017-Nov-14 15:58N 51°57' E 004°00'0 0.0
2017-Nov-14 15:28N 51°57' E 004°00'0 0.0
2017-Nov-14 14:58N 51°57' E 004°00'0 0.0
2017-Nov-14 14:28N 51°57' E 004°00'0 0.0
2017-Nov-14 13:58N 51°57' E 004°00'0 0.0
2017-Nov-14 13:28N 51°57' E 004°00'0 0.0
2017-Nov-14 12:58N 51°57' E 004°00'0 0.0
2017-Nov-14 12:25N 51°57' E 004°00'0 0.0
2017-Nov-14 11:58N 51°57' E 004°00'0 0.0
2017-Nov-14 11:25N 51°57' E 004°00'0 0.0
2017-Nov-14 10:55N 51°57' E 004°00'0 0.0
2017-Nov-14 10:28N 51°57' E 004°00'0 0.0
2017-Nov-14 09:58N 51°57' E 004°00'0 0.0
2017-Nov-14 09:25N 51°57' E 004°00'0 0.0
2017-Nov-14 08:58N 51°57' E 004°00'0 0.0
2017-Nov-14 08:28N 51°57' E 004°00'0 0.0
2017-Nov-14 07:55N 51°57' E 004°00'0 0.0
2017-Nov-14 07:30N 51°57' E 004°00'1 2.1
2017-Nov-14 07:00N 51°58' E 003°60'0 0.6
2017-Nov-14 06:30N 51°58' E 003°59'0 0.0
2017-Nov-14 06:00N 51°58' E 003°59'0 0.0
2017-Nov-14 05:30N 51°58' E 003°59'0 0.0
2017-Nov-14 05:00N 51°58' E 003°59'0 0.0
2017-Nov-14 04:30N 51°58' E 003°59'0 0.0
2017-Nov-14 04:00N 51°58' E 003°59'0 0.0
2017-Nov-14 03:30N 51°58' E 003°59'0 0.3
2017-Nov-14 03:00N 51°58' E 003°60'2 4.3
2017-Nov-14 02:30N 51°58' E 004°03'1 2.1
2017-Nov-14 02:00N 51°59' E 004°03'4 7.7
2017-Nov-14 01:30N 52°01' E 003°58'4 8.1
2017-Nov-14 01:00N 52°01' E 003°51'4 8.8
2017-Nov-14 00:30N 52°04' E 003°46'815.2
2017-Nov-14 00:01N 52°12' E 003°46'612.0
2017-Nov-13 23:31N 52°17' E 003°40'2 3.0
2017-Nov-13 23:00N 52°16' E 003°42'1 1.8
2017-Nov-13 22:30N 52°16' E 003°41'1 1.5
2017-Nov-13 21:58N 52°15' E 003°40'51 2.5
2017-Nov-13 02:01N 51°30' E 003°04'510.4
2017-Nov-13 01:31N 51°25' E 003°01'815.7
2017-Nov-13 01:01N 51°25' E 003°14'816.6
2017-Nov-13 00:30N 51°25' E 003°27'612.3
2017-Nov-13 00:01N 51°26' E 003°36'713.7
2017-Nov-12 23:30N 51°22' E 003°45'816.5
2017-Nov-12 23:01N 51°25' E 003°58'611.6
2017-Nov-12 22:30N 51°22' E 004°06'611.9
2017-Nov-12 22:01N 51°21' E 004°15'4 7.5
2017-Nov-12 21:31N 51°17' E 004°16'0 0.5
2017-Nov-12 20:56N 51°17' E 004°15'0 0.0
2017-Nov-12 20:29N 51°17' E 004°15'0 0.0
2017-Nov-12 19:59N 51°17' E 004°15'0 0.0
2017-Nov-12 19:29N 51°17' E 004°15'0 0.0
2017-Nov-12 18:59N 51°17' E 004°15'0 0.0
2017-Nov-12 18:29N 51°17' E 004°15'0 0.0
2017-Nov-12 17:59N 51°17' E 004°15'0 0.0
2017-Nov-12 17:29N 51°17' E 004°15'0 0.0
2017-Nov-12 16:59N 51°17' E 004°15'0 0.0
2017-Nov-12 16:29N 51°17' E 004°15'0 0.0
2017-Nov-12 15:59N 51°17' E 004°15'0 0.0
2017-Nov-12 15:23N 51°17' E 004°15'0 0.0
2017-Nov-12 14:59N 51°17' E 004°15'0 0.0
2017-Nov-12 14:29N 51°17' E 004°15'0 0.0
2017-Nov-12 13:59N 51°17' E 004°15'0 0.0
2017-Nov-12 13:29N 51°17' E 004°15'0 0.0
2017-Nov-12 12:59N 51°17' E 004°15'0 0.0
2017-Nov-12 12:26N 51°17' E 004°15'0 0.0
2017-Nov-12 11:59N 51°17' E 004°15'0 0.0
2017-Nov-12 11:29N 51°17' E 004°15'0 0.0
2017-Nov-12 10:59N 51°17' E 004°15'0 0.0
2017-Nov-12 10:29N 51°17' E 004°15'0 0.0
2017-Nov-12 09:59N 51°17' E 004°15'0 0.0
2017-Nov-12 09:29N 51°17' E 004°15'0 0.0
2017-Nov-12 08:56N 51°17' E 004°15'0 0.0
2017-Nov-12 08:29N 51°17' E 004°15'0 0.0
2017-Nov-12 07:59N 51°17' E 004°15'0 0.0
2017-Nov-12 07:29N 51°17' E 004°15'0 0.0
2017-Nov-12 06:59N 51°17' E 004°15'0 0.0
2017-Nov-12 06:29N 51°17' E 004°15'0 0.0
2017-Nov-12 05:59N 51°17' E 004°15'0 0.0
2017-Nov-12 05:29N 51°17' E 004°15'0 0.0
2017-Nov-12 04:56N 51°17' E 004°15'0 0.0
2017-Nov-12 04:30N 51°17' E 004°15'1 1.4
2017-Nov-12 04:00N 51°18' E 004°16'1 2.6
2017-Nov-12 03:30N 51°19' E 004°16'4 7.9
2017-Nov-12 03:01N 51°22' E 004°13'611.5
2017-Nov-12 02:30N 51°22' E 004°04'4 8.9
2017-Nov-12 02:00N 51°25' E 003°58'714.2
2017-Nov-12 01:30N 51°21' E 003°48'714.7
2017-Nov-12 01:01N 51°26' E 003°40'4 8.8
2017-Nov-12 00:30N 51°25' E 003°33'611.9
2017-Nov-12 00:00N 51°24' E 003°24'815.1
2017-Nov-11 23:30N 51°24' E 003°11'713.6
2017-Nov-11 23:00N 51°24' E 003°01'714.1
2017-Nov-11 22:30N 51°22' E 002°50'712.1
2017-Nov-11 21:54N 51°22' E 002°38'4 9.4
2017-Nov-11 21:29N 51°22' E 002°32'715.1
2017-Nov-11 21:00N 51°19' E 002°21'917.9
2017-Nov-11 20:30N 51°15' E 002°09'918.2
2017-Nov-11 20:00N 51°10' E 001°56'918.2
2017-Nov-11 19:30N 51°05' E 001°45'918.6
2017-Nov-11 19:00N 50°58' E 001°35'918.6
2017-Nov-11 18:30N 50°50' E 001°27'5216.9
2017-Nov-11 15:26N 50°23' E 000°17'818.3
2017-Nov-11 15:00N 50°21' E 000°05'918.4
2017-Nov-11 14:30N 50°20' W 000°09'1019.2
2017-Nov-11 14:00N 50°20' W 000°24'3521.4
2017-Nov-11 12:21N 50°21' W 001°20'1022.1
2017-Nov-11 11:53N 50°22' W 001°36'922.2
2017-Nov-11 11:29N 50°22' W 001°50'3121.1
2017-Nov-11 10:01N 50°24' W 002°38'020.4
2017-Nov-11 10:00N 50°24' W 002°38'1020.5
2017-Nov-11 09:30N 50°24' W 002°54'1020.4
2017-Nov-11 09:00N 50°24' W 003°10'917.4
2017-Nov-11 08:31N 50°23' W 003°24'3 5.6
2017-Nov-11 08:01N 50°20' W 003°25'815.7
2017-Nov-11 07:30N 50°13' W 003°29'919.0
2017-Nov-11 07:00N 50°06' W 003°39'1121.5
2017-Nov-11 06:30N 50°02' W 003°55'1121.9
2017-Nov-11 06:00N 49°59' W 004°11'1121.9
2017-Nov-11 05:30N 49°56' W 004°27'1121.9
2017-Nov-11 05:00N 49°52' W 004°43'6521.7
2017-Nov-11 02:01N 49°38' W 006°21'1921.8
2017-Nov-11 01:10N 49°39' W 006°50'1222.1
2017-Nov-11 00:38N 49°38' W 007°08'1222.2
2017-Nov-11 00:06N 49°38' W 007°26'222.1
2017-Nov-11 00:00N 49°38' W 007°30'26221.8
2017-Nov-10 12:00N 49°24' W 014°12'77721.6 270 / 221039.010.8 15.511.215.2
2017-Nov-09 00:00N 46°48' W 033°12'   180 / 141039.010.8 16.012.715.2
Track history (hours):
 
Tides and Currents Weather Stations Pressure Air Temp Water Temp Dewpoint Dewpoint Depression Visibility Wind Speed Wind Dir Waves Ship Positions

Maersk Idaho

Owner: MAERSK LINE, LIMITED, NORFOLK, VA. More information available from US FCC via Universal Licensing System and Coast Guard Vessel Documentation Center.

Last reported at 2017-Nov-18 12:00 UTC. Time now 2017-Nov-21 15:42 UTC.
Position N 49°54' W 011°30'.

Length 292 m; draft 11.8 m.

Type: Cargo ship. MMSI: 368660000.

Wind from 230 at 19 knots

Barometer 1032.0 mb
Air temperature 14.0 ° C
Visibility: greater than 27.0 NM
Dewpoint 10.5 ° C
Water temperature 15.6 ° C

Date/timePositionNaut miles runAvg speedWind from/ knotsBaromVisibWave heightAir tempDewpointWater temp
2017-Nov-18 12:00N 49°54' W 011°30'23618.6 230 / 191032.027.0 14.010.515.6
2017-Nov-17 23:16N 49°47' W 005°24'520.5
2017-Nov-17 23:00N 49°47' W 005°16'1020.8
2017-Nov-17 22:30N 49°49' W 004°60'1720.6
2017-Nov-17 21:40N 49°54' W 004°34'420.4
2017-Nov-17 21:27N 49°55' W 004°27'920.2
2017-Nov-17 21:01N 49°57' W 004°14'1319.2
2017-Nov-17 20:21N 50°03' W 003°56'719.2
2017-Nov-17 20:00N 50°05' W 003°46'918.4
2017-Nov-17 19:30N 50°07' W 003°32'918.4
2017-Nov-17 19:00N 50°16' W 003°28'816.9
2017-Nov-17 18:31N 50°24' W 003°25'510.8
2017-Nov-17 18:00N 50°25' W 003°17'918.4
2017-Nov-17 17:30N 50°26' W 003°03'918.8
2017-Nov-17 17:00N 50°26' W 002°48'1019.0
2017-Nov-17 16:30N 50°26' W 002°33'1019.3
2017-Nov-17 16:00N 50°26' W 002°18'1420.2
2017-Nov-17 15:18N 50°27' W 001°56'620.9
2017-Nov-17 15:00N 50°27' W 001°46'1621.6
2017-Nov-17 14:17N 50°28' W 001°22'1322.2
2017-Nov-17 13:41N 50°29' W 001°01'421.9
2017-Nov-17 13:30N 50°30' W 000°55'2221.5
2017-Nov-17 12:29N 50°29' W 000°20'1020.9
2017-Nov-17 12:00N 50°30' W 000°04'1020.6
2017-Nov-17 11:30N 50°33' E 000°11'1020.2
2017-Nov-17 11:00N 50°36' E 000°27'1019.5
2017-Nov-17 10:30N 50°40' E 000°41'1019.3
2017-Nov-17 10:00N 50°46' E 000°53'1019.0
2017-Nov-17 09:30N 50°52' E 001°05'1019.2
2017-Nov-17 09:00N 50°58' E 001°16'1020.5
2017-Nov-17 08:30N 51°05' E 001°29'1122.0
2017-Nov-17 08:00N 51°12' E 001°42'1122.4
2017-Nov-17 07:30N 51°21' E 001°51'1121.8
2017-Nov-17 07:00N 51°30' E 002°02'1121.4
2017-Nov-17 06:30N 51°38' E 002°14'12519.1
2017-Nov-16 23:58N 53°13' E 004°26'12817.2
2017-Nov-16 16:32N 53°53' E 007°51'113.6
2017-Nov-16 16:29N 53°52' E 007°52'612.4
2017-Nov-16 16:00N 53°51' E 008°02'714.4
2017-Nov-16 15:30N 53°46' E 008°11'815.4
2017-Nov-16 15:01N 53°41' E 008°21'815.1
2017-Nov-16 14:30N 53°36' E 008°30'2 3.2
2017-Nov-16 14:00N 53°35' E 008°32'0 0.0
2017-Nov-16 13:30N 53°35' E 008°32'0 0.0
2017-Nov-16 12:59N 53°35' E 008°32'0 0.0
2017-Nov-16 12:26N 53°35' E 008°32'0 0.0
2017-Nov-16 11:59N 53°35' E 008°32'0 0.0
2017-Nov-16 11:29N 53°35' E 008°32'0 0.0
2017-Nov-16 10:59N 53°35' E 008°32'0 0.0
2017-Nov-16 10:29N 53°35' E 008°32'0 0.0
2017-Nov-16 09:59N 53°35' E 008°32'0 0.0
2017-Nov-16 09:29N 53°35' E 008°32'0 0.0
2017-Nov-16 08:59N 53°35' E 008°32'0 0.0
2017-Nov-16 08:29N 53°35' E 008°32'0 0.0
2017-Nov-16 07:59N 53°35' E 008°32'0 0.0
2017-Nov-16 07:29N 53°35' E 008°32'0 0.0
2017-Nov-16 06:59N 53°35' E 008°32'0 0.0
2017-Nov-16 06:29N 53°35' E 008°32'0 0.0
2017-Nov-16 05:59N 53°35' E 008°32'0 0.0
2017-Nov-16 05:29N 53°35' E 008°32'0 0.0
2017-Nov-16 04:59N 53°35' E 008°32'0 0.0
2017-Nov-16 04:29N 53°35' E 008°32'0 0.0
2017-Nov-16 03:59N 53°35' E 008°32'0 0.0
2017-Nov-16 03:29N 53°35' E 008°32'0 0.0
2017-Nov-16 02:59N 53°35' E 008°32'0 0.0
2017-Nov-16 02:29N 53°35' E 008°32'0 0.0
2017-Nov-16 01:59N 53°35' E 008°32'0 0.0
2017-Nov-16 01:29N 53°35' E 008°32'0 0.0
2017-Nov-16 00:59N 53°35' E 008°32'0 0.0
2017-Nov-16 00:29N 53°35' E 008°32'0 0.0
2017-Nov-15 23:59N 53°35' E 008°32'0 0.0
2017-Nov-15 23:29N 53°35' E 008°32'0 0.0
2017-Nov-15 22:59N 53°35' E 008°32'0 0.0
2017-Nov-15 22:29N 53°35' E 008°32'0 0.0
2017-Nov-15 21:59N 53°35' E 008°32'0 0.0
2017-Nov-15 21:29N 53°35' E 008°32'0 0.0
2017-Nov-15 20:59N 53°35' E 008°32'0 0.0
2017-Nov-15 20:29N 53°35' E 008°32'0 0.0
2017-Nov-15 19:59N 53°35' E 008°32'0 0.0
2017-Nov-15 19:29N 53°35' E 008°32'0 0.0
2017-Nov-15 18:59N 53°35' E 008°32'0 0.0
2017-Nov-15 18:30N 53°35' E 008°32'1 1.0
2017-Nov-15 18:00N 53°35' E 008°31'4 8.8
2017-Nov-15 17:30N 53°38' E 008°26'918.8
2017-Nov-15 17:00N 53°44' E 008°14'1019.7
2017-Nov-15 16:30N 53°51' E 008°01'816.5
2017-Nov-15 16:00N 53°53' E 007°48'611.6
2017-Nov-15 15:30N 53°54' E 007°38'1018.5
2017-Nov-15 14:59N 53°53' E 007°22'11318.3
2017-Nov-15 08:48N 53°06' E 004°28'518.9
2017-Nov-15 08:30N 53°02' E 004°24'1019.0
2017-Nov-15 08:00N 52°53' E 004°17'918.9
2017-Nov-15 07:30N 52°45' E 004°08'918.9
2017-Nov-15 07:00N 52°37' E 003°60'918.7
2017-Nov-15 06:30N 52°29' E 003°54'918.8
2017-Nov-15 06:00N 52°19' E 003°52'918.9
2017-Nov-15 05:30N 52°10' E 003°54'815.1
2017-Nov-15 05:00N 52°02' E 003°54'715.0
2017-Nov-15 04:31N 51°59' E 004°05'2 4.4
2017-Nov-15 04:00N 51°58' E 004°01'1 2.4
2017-Nov-15 03:30N 51°58' E 004°00'0 0.6
2017-Nov-15 03:00N 51°57' E 004°00'0 0.0
2017-Nov-15 02:30N 51°57' E 004°00'0 0.0
2017-Nov-15 02:00N 51°57' E 004°00'0 0.0
2017-Nov-15 01:30N 51°57' E 004°00'0 0.0
2017-Nov-15 00:58N 51°57' E 004°00'0 0.0
2017-Nov-15 00:28N 51°57' E 004°00'0 0.0
2017-Nov-14 23:58N 51°57' E 004°00'0 0.0
2017-Nov-14 23:28N 51°57' E 004°00'0 0.0
2017-Nov-14 22:58N 51°57' E 004°00'0 0.0
2017-Nov-14 22:28N 51°57' E 004°00'0 0.0
2017-Nov-14 21:58N 51°57' E 004°00'0 0.0
2017-Nov-14 21:28N 51°57' E 004°00'0 0.0
2017-Nov-14 20:58N 51°57' E 004°00'0 0.0
2017-Nov-14 20:28N 51°57' E 004°00'0 0.0
2017-Nov-14 19:55N 51°57' E 004°00'0 0.0
2017-Nov-14 19:25N 51°57' E 004°00'0 0.0
2017-Nov-14 18:58N 51°57' E 004°00'0 0.0
2017-Nov-14 18:28N 51°57' E 004°00'0 0.0
2017-Nov-14 17:58N 51°57' E 004°00'0 0.0
2017-Nov-14 17:28N 51°57' E 004°00'0 0.0
2017-Nov-14 16:58N 51°57' E 004°00'0 0.0
2017-Nov-14 16:28N 51°57' E 004°00'0 0.0
2017-Nov-14 15:58N 51°57' E 004°00'0 0.0
2017-Nov-14 15:28N 51°57' E 004°00'0 0.0
2017-Nov-14 14:58N 51°57' E 004°00'0 0.0
2017-Nov-14 14:28N 51°57' E 004°00'0 0.0
2017-Nov-14 13:58N 51°57' E 004°00'0 0.0
2017-Nov-14 13:28N 51°57' E 004°00'0 0.0
2017-Nov-14 12:58N 51°57' E 004°00'0 0.0
2017-Nov-14 12:25N 51°57' E 004°00'0 0.0
2017-Nov-14 11:58N 51°57' E 004°00'0 0.0
2017-Nov-14 11:25N 51°57' E 004°00'0 0.0
2017-Nov-14 10:55N 51°57' E 004°00'0 0.0
2017-Nov-14 10:28N 51°57' E 004°00'0 0.0
2017-Nov-14 09:58N 51°57' E 004°00'0 0.0
2017-Nov-14 09:25N 51°57' E 004°00'0 0.0
2017-Nov-14 08:58N 51°57' E 004°00'0 0.0
2017-Nov-14 08:28N 51°57' E 004°00'0 0.0
2017-Nov-14 07:55N 51°57' E 004°00'0 0.0
2017-Nov-14 07:30N 51°57' E 004°00'1 2.1
2017-Nov-14 07:00N 51°58' E 003°60'0 0.6
2017-Nov-14 06:30N 51°58' E 003°59'0 0.0
2017-Nov-14 06:00N 51°58' E 003°59'0 0.0
2017-Nov-14 05:30N 51°58' E 003°59'0 0.0
2017-Nov-14 05:00N 51°58' E 003°59'0 0.0
2017-Nov-14 04:30N 51°58' E 003°59'0 0.0
2017-Nov-14 04:00N 51°58' E 003°59'0 0.0
2017-Nov-14 03:30N 51°58' E 003°59'0 0.3
2017-Nov-14 03:00N 51°58' E 003°60'2 4.3
2017-Nov-14 02:30N 51°58' E 004°03'1 2.1
2017-Nov-14 02:00N 51°59' E 004°03'4 7.7
2017-Nov-14 01:30N 52°01' E 003°58'4 8.1
2017-Nov-14 01:00N 52°01' E 003°51'4 8.8
2017-Nov-14 00:30N 52°04' E 003°46'815.2
2017-Nov-14 00:01N 52°12' E 003°46'612.0
2017-Nov-13 23:31N 52°17' E 003°40'2 3.0
2017-Nov-13 23:00N 52°16' E 003°42'1 1.8
2017-Nov-13 22:30N 52°16' E 003°41'1 1.5
2017-Nov-13 21:58N 52°15' E 003°40'51 2.5
2017-Nov-13 02:01N 51°30' E 003°04'510.4
2017-Nov-13 01:31N 51°25' E 003°01'815.7
2017-Nov-13 01:01N 51°25' E 003°14'816.6
2017-Nov-13 00:30N 51°25' E 003°27'612.3
2017-Nov-13 00:01N 51°26' E 003°36'713.7
2017-Nov-12 23:30N 51°22' E 003°45'816.5
2017-Nov-12 23:01N 51°25' E 003°58'611.6
2017-Nov-12 22:30N 51°22' E 004°06'611.9
2017-Nov-12 22:01N 51°21' E 004°15'4 7.5
2017-Nov-12 21:31N 51°17' E 004°16'0 0.5
2017-Nov-12 20:56N 51°17' E 004°15'0 0.0
2017-Nov-12 20:29N 51°17' E 004°15'0 0.0
2017-Nov-12 19:59N 51°17' E 004°15'0 0.0
2017-Nov-12 19:29N 51°17' E 004°15'0 0.0
2017-Nov-12 18:59N 51°17' E 004°15'0 0.0
2017-Nov-12 18:29N 51°17' E 004°15'0 0.0
2017-Nov-12 17:59N 51°17' E 004°15'0 0.0
2017-Nov-12 17:29N 51°17' E 004°15'0 0.0
2017-Nov-12 16:59N 51°17' E 004°15'0 0.0
2017-Nov-12 16:29N 51°17' E 004°15'0 0.0
2017-Nov-12 15:59N 51°17' E 004°15'0 0.0
2017-Nov-12 15:23N 51°17' E 004°15'0 0.0
2017-Nov-12 14:59N 51°17' E 004°15'0 0.0
2017-Nov-12 14:29N 51°17' E 004°15'0 0.0
2017-Nov-12 13:59N 51°17' E 004°15'0 0.0
2017-Nov-12 13:29N 51°17' E 004°15'0 0.0
2017-Nov-12 12:59N 51°17' E 004°15'0 0.0
2017-Nov-12 12:26N 51°17' E 004°15'0 0.0
2017-Nov-12 11:59N 51°17' E 004°15'0 0.0
2017-Nov-12 11:29N 51°17' E 004°15'0 0.0
2017-Nov-12 10:59N 51°17' E 004°15'0 0.0
2017-Nov-12 10:29N 51°17' E 004°15'0 0.0
2017-Nov-12 09:59N 51°17' E 004°15'0 0.0
2017-Nov-12 09:29N 51°17' E 004°15'0 0.0
2017-Nov-12 08:56N 51°17' E 004°15'0 0.0
2017-Nov-12 08:29N 51°17' E 004°15'0 0.0
2017-Nov-12 07:59N 51°17' E 004°15'0 0.0
2017-Nov-12 07:29N 51°17' E 004°15'0 0.0
2017-Nov-12 06:59N 51°17' E 004°15'0 0.0
2017-Nov-12 06:29N 51°17' E 004°15'0 0.0
2017-Nov-12 05:59N 51°17' E 004°15'0 0.0
2017-Nov-12 05:29N 51°17' E 004°15'0 0.0
2017-Nov-12 04:56N 51°17' E 004°15'0 0.0
2017-Nov-12 04:30N 51°17' E 004°15'1 1.4
2017-Nov-12 04:00N 51°18' E 004°16'1 2.6
2017-Nov-12 03:30N 51°19' E 004°16'4 7.9
2017-Nov-12 03:01N 51°22' E 004°13'611.5
2017-Nov-12 02:30N 51°22' E 004°04'4 8.9
2017-Nov-12 02:00N 51°25' E 003°58'714.2
2017-Nov-12 01:30N 51°21' E 003°48'714.7
2017-Nov-12 01:01N 51°26' E 003°40'4 8.8
2017-Nov-12 00:30N 51°25' E 003°33'611.9
2017-Nov-12 00:00N 51°24' E 003°24'815.1
2017-Nov-11 23:30N 51°24' E 003°11'713.6
2017-Nov-11 23:00N 51°24' E 003°01'714.1
2017-Nov-11 22:30N 51°22' E 002°50'712.1
2017-Nov-11 21:54N 51°22' E 002°38'4 9.4
2017-Nov-11 21:29N 51°22' E 002°32'715.1
2017-Nov-11 21:00N 51°19' E 002°21'917.9
2017-Nov-11 20:30N 51°15' E 002°09'918.2
2017-Nov-11 20:00N 51°10' E 001°56'918.2
2017-Nov-11 19:30N 51°05' E 001°45'918.6
2017-Nov-11 19:00N 50°58' E 001°35'918.6
2017-Nov-11 18:30N 50°50' E 001°27'5216.9
2017-Nov-11 15:26N 50°23' E 000°17'818.3
2017-Nov-11 15:00N 50°21' E 000°05'918.4
2017-Nov-11 14:30N 50°20' W 000°09'1019.2
2017-Nov-11 14:00N 50°20' W 000°24'3521.4
2017-Nov-11 12:21N 50°21' W 001°20'1022.1
2017-Nov-11 11:53N 50°22' W 001°36'922.2
2017-Nov-11 11:29N 50°22' W 001°50'3121.1
2017-Nov-11 10:01N 50°24' W 002°38'020.4
2017-Nov-11 10:00N 50°24' W 002°38'1020.5
2017-Nov-11 09:30N 50°24' W 002°54'1020.4
2017-Nov-11 09:00N 50°24' W 003°10'917.4
2017-Nov-11 08:31N 50°23' W 003°24'3 5.6
2017-Nov-11 08:01N 50°20' W 003°25'815.7
2017-Nov-11 07:30N 50°13' W 003°29'919.0
2017-Nov-11 07:00N 50°06' W 003°39'1121.5
2017-Nov-11 06:30N 50°02' W 003°55'1121.9
2017-Nov-11 06:00N 49°59' W 004°11'1121.9
2017-Nov-11 05:30N 49°56' W 004°27'1121.9
2017-Nov-11 05:00N 49°52' W 004°43'6521.7
2017-Nov-11 02:01N 49°38' W 006°21'1921.8
2017-Nov-11 01:10N 49°39' W 006°50'1222.1
2017-Nov-11 00:38N 49°38' W 007°08'1222.2
2017-Nov-11 00:06N 49°38' W 007°26'222.1
2017-Nov-11 00:00N 49°38' W 007°30'26221.8
2017-Nov-10 12:00N 49°24' W 014°12'77721.6 270 / 221039.010.8 15.511.215.2
2017-Nov-09 00:00N 46°48' W 033°12'   180 / 141039.010.8 16.012.715.2

Dump ship's entire track history